x

San Clemente Basin - 27nm Se Of San Clemente Is, Ca (46086) Wave Buoy

7:50am - Fri 27th May 2016 All times are PDT. -7 hours from GMT.

  • Sig Wave height 5.6ft
  • Swell Direction
  • Peak Period 8s
  • Average Period 6s
  • Wind
    9mph, 11mph gusts
  • Sea Temp 63°f
  • Air Temp 59°f
  • Sea Pressure 1014.4mb
  • San Clemente Basin - 27nm Se Of San Clemente Is, Ca
  • San Clemente Basin - 27nm Se Of San Clemente Is, Ca

More Historic Weather Station data

Upgrade to MSW Pro to gain access to the past 30 days of data for over 8000 Wavebouys and Weather Stations around the globe.

Join Pro

Comparision Forecast

View Surf forecast
   
Fri 05/27 7:50am 5.5ft 8s 6s 9 11 mph 1014.4mb 63f 59f
6:50am 5ft 7s 6s 7 9 mph 1014.1mb 63f 58f
5:50am 5ft 8s 6s 9 11 mph 1014.1mb 63f 58f
4:50am 5ft 8s 6s 11 13 mph 1013.9mb 63f 58f
3:50am 5ft 8s 6s 13 16 mph 1014.4mb 62f 58f
2:50am 5ft 7s 6s 11 16 mph 1014.9mb 62f 58f
1:50am 5ft 8s 6s 11 16 mph 1015.4mb 62f 58f
12:50am 5ft 8s 6s 16 18 mph 1015.7mb 62f 58f
Thu 05/26 11:50pm 5ft 7s 6s 16 18 mph 1015.8mb 62f 58f
10:50pm 5ft 7s 5s 16 18 mph 1016mb 62f 59f
9:50pm 5ft 7s 5s 16 18 mph 1015.9mb 62f 59f
8:50pm 5ft 8s 5s 18 20 mph 1015.5mb 62f 59f
7:50pm 5ft 8s 5s 18 20 mph 1015.4mb 62f 60f
6:50pm 4.5ft 8s 5s 18 22 mph 1015.1mb 62f 60f
5:50pm 4.5ft 6s 5s 16 18 mph 1015.4mb 62f 60f
4:50pm 5ft 8s 5s 18 20 mph 1016mb 62f 60f
3:50pm 5ft 8s 5s 16 18 mph 1016.3mb 62f 60f
2:50pm 5ft 8s 6s 16 18 mph 1017.1mb 63f 60f
1:50pm 5ft 8s 6s 11 16 mph 1017.6mb 63f 60f
12:50pm 5.5ft 8s 6s 9 11 mph 1017.9mb 63f 60f
11:50am 5ft 8s 6s 9 11 mph 1018.4mb 63f 60f
10:50am 5ft 8s 6s 11 13 mph 1018.5mb 63f 60f
9:50am 5ft 8s 6s 13 18 mph 1018.5mb 63f 60f
8:50am 5.5ft 7s 6s 9 13 mph 1018.5mb 63f 59f
7:50am 6ft 8s 6s 9 16 mph 1018.7mb 63f 59f
6:50am 5ft 8s 6s 11 13 mph 1018.3mb 63f 59f
5:50am 5ft 7s 6s 11 13 mph 1017.7mb 63f 59f
4:50am 5ft 7s 5s 13 16 mph 1017.5mb 63f 59f
3:50am 4.5ft 7s 5s 13 16 mph 1017.6mb 62f 59f
2:50am 4ft 6s 5s 13 18 mph 1017.8mb 62f 59f
1:50am 4ft 6s 5s 16 18 mph 1018.5mb 62f 59f
12:50am 3.5ft 6s 5s 16 18 mph 1018.7mb 62f 59f
Wed 05/25 11:50pm 4ft 7s 5s 16 20 mph 1019.1mb 62f 59f
10:50pm 4ft 6s 5s 16 18 mph 1019.6mb 63f 59f
9:50pm 4ft 6s 5s 13 18 mph 1019.6mb 63f 59f
8:50pm 4ft 5s 4s 18 20 mph 1019.3mb 63f 60f
7:50pm 4.5ft 5s 4s 18 22 mph 1019.1mb 63f 60f
6:50pm 3.5ft 5s 4s 18 20 mph 1018.8mb 63f 60f
5:50pm 3.5ft 4s 4s 18 20 mph 1018.8mb 63f 60f
4:50pm 3.5ft 4s 4s 20 22 mph 1019.2mb 63f 60f
3:50pm 2.5ft 15s 4s 18 20 mph 1019.5mb 63f 60f
2:50pm 2.5ft 15s 4s 16 18 mph 1019.7mb 63f 60f
1:50pm 2.5ft 15s 4s 16 18 mph 1019.9mb 64f 60f
12:50pm 2.5ft 15s 4s 18 20 mph 1020mb 64f 60f
11:50am 2.5ft 15s 5s 13 16 mph 1020.2mb 64f 60f
10:50am 2ft 16s 4s 13
mph
1019.8mb 64f 61f
9:50am 2.5ft 14s 5s 13 16 mph 1019.4mb 63f 61f
8:50am 2.5ft 16s 5s 11 13 mph 1019mb 63f 61f
7:50am 2.5ft 15s 5s 11
mph
1018.4mb 63f 61f
6:50am 2.5ft 15s 5s 11
mph
1018.1mb 63f 61f
5:50am 2.5ft 6s 5s 9 11 mph 1017.7mb 63f 60f
4:50am 2.5ft 15s 5s 9
mph
1017.4mb 63f 60f
3:50am 2.5ft 15s 5s 11 13 mph 1017.5mb 63f 60f
2:50am 2.5ft 15s 5s 7 11 mph 1017.4mb 62f 60f
1:50am 2.5ft 16s 4s 9 11 mph 1017.7mb 62f 60f
12:50am 2.5ft 16s 5s 11 13 mph 1018mb 62f 60f
Tue 05/24 11:50pm 2ft 15s 5s 13
mph
1017.8mb 62f 60f
10:50pm 2ft 16s 5s 13 16 mph 1017.8mb 62f 60f
9:50pm 2.5ft 15s 5s 11 13 mph 1017.7mb 62f 60f
8:50pm 2.5ft 12s 4s 13 18 mph 1017.3mb 62f 60f
7:50pm 2.5ft 16s 4s 13 16 mph 1017.3mb 63f 61f
6:50pm 2.5ft 16s 5s 16 18 mph 1017mb 63f 61f
5:50pm 2.5ft 15s 5s 13 16 mph 1017.1mb 63f 60f
4:50pm 3ft 15s 5s 11 13 mph 1017.4mb 63f 60f
3:50pm 2.5ft 5s 5s 11 13 mph 1017.6mb 62f 60f
2:50pm 3ft 5s 5s 9 11 mph 1017.9mb 62f 60f
1:50pm 3ft 6s 5s 9 11 mph 1017.9mb 62f 60f
12:50pm 3.5ft 5s 5s 9 11 mph 1017.8mb 62f 59f
11:50am 3.5ft 6s 5s 11 13 mph 1017.5mb 61f 60f
10:50am 3.5ft 6s 5s 11 13 mph 1017mb 61f 60f
9:50am 3.5ft 7s 5s 16 18 mph 1016.4mb 61f 58f
8:50am 4ft 6s 5s 13 16 mph 1016.1mb 61f 58f
7:50am 4.5ft 6s 5s 9 11 mph 1015.6mb 61f 58f
6:50am 4ft 6s 5s 9 11 mph 1015mb 61f 59f
5:50am 4ft 7s 5s 7 9 mph 1014.5mb 61f 57f
4:50am 4.5ft 7s 5s 9 11 mph 1014.3mb 61f 58f
3:50am 4.5ft 7s 5s 11 13 mph 1014.1mb 61f 58f
2:50am 4.5ft 7s 5s 13 16 mph 1014.1mb 62f 60f
1:50am 4.5ft 7s 5s 16 18 mph 1014.2mb 62f 60f
12:50am 4.5ft 6s 5s 13 18 mph 1014.2mb 62f 60f
Mon 05/23 11:50pm 4.5ft 7s 5s 16 18 mph 1014.2mb 62f 59f
10:50pm 4ft 7s 5s 18 20 mph 1014.2mb 62f 59f
9:50pm 4.5ft 7s 5s 16 20 mph 1013.8mb 62f 59f
8:50pm 4.5ft 6s 5s 18 22 mph 1013.2mb 62f 59f
7:50pm 4.5ft 7s 5s 18 20 mph 1012.9mb 62f 59f
6:50pm 5ft 7s 5s 18 22 mph 1012.9mb 62f 59f
5:50pm 5ft 7s 5s 18 20 mph 1013mb 62f 59f
4:50pm 5ft 7s 5s 18 22 mph 1013.4mb 62f 59f